createdAt,value
2019-05-10T00:00:20.063Z,85.62
2019-05-10T00:00:49.996Z,85.63
2019-05-10T00:01:20.056Z,85.71
2019-05-10T00:01:50.011Z,85.73
2019-05-10T00:02:20.059Z,85.77
2019-05-10T00:02:51.177Z,85.75
2019-05-10T00:03:20.060Z,85.84
2019-05-10T00:03:50.002Z,85.89
2019-05-10T00:04:20.056Z,85.92
2019-05-10T00:04:50.014Z,86.08
2019-05-10T00:05:20.055Z,86.13
2019-05-10T00:05:49.992Z,86.13
2019-05-10T00:06:20.061Z,86.13
2019-05-10T00:06:49.996Z,86.13
2019-05-10T00:07:20.060Z,86.18
2019-05-10T00:07:53.117Z,86.13
2019-05-10T00:08:20.066Z,86.16
2019-05-10T00:08:50.003Z,86.08
2019-05-10T00:09:20.063Z,86.09
2019-05-10T00:09:50.003Z,86.13
2019-05-10T00:10:20.061Z,86.11
2019-05-10T00:10:49.995Z,86.10
2019-05-10T00:11:20.148Z,85.92
2019-05-10T00:11:49.995Z,86.00
2019-05-10T00:12:20.060Z,86.03
2019-05-10T00:12:49.991Z,86.02
2019-05-10T00:13:21.158Z,86.05
2019-05-10T00:13:50.005Z,86.12
2019-05-10T00:14:23.094Z,86.16
2019-05-10T00:14:49.999Z,86.26
2019-05-10T00:15:20.052Z,86.45
2019-05-10T00:15:50.011Z,86.56
2019-05-10T00:16:20.060Z,86.63
2019-05-10T00:16:50.015Z,86.69
2019-05-10T00:17:20.060Z,86.76
2019-05-10T00:17:50.004Z,86.90
2019-05-10T00:18:23.197Z,87.11
2019-05-10T00:18:50.041Z,87.21
2019-05-10T00:19:20.058Z,87.20
2019-05-10T00:19:50.034Z,87.12
2019-05-10T00:20:20.056Z,87.07
2019-05-10T00:20:50.035Z,87.01
2019-05-10T00:21:20.058Z,87.03
2019-05-10T00:21:50.003Z,86.92
2019-05-10T00:22:20.103Z,86.67
2019-05-10T00:22:49.998Z,86.53
2019-05-10T00:23:20.076Z,86.45
2019-05-10T00:23:51.145Z,86.34
2019-05-10T00:24:20.067Z,86.26
2019-05-10T00:25:03.581Z,86.05
2019-05-10T00:25:20.064Z,85.95
2019-05-10T00:25:52.009Z,85.85
2019-05-10T00:26:20.059Z,85.83
2019-05-10T00:26:49.995Z,85.70
2019-05-10T00:27:20.066Z,85.46
2019-05-10T00:27:49.996Z,85.37
2019-05-10T00:28:20.058Z,85.25
2019-05-10T00:28:53.181Z,85.24
2019-05-10T00:29:20.064Z,85.26
2019-05-10T00:29:50.031Z,85.24
2019-05-10T00:30:20.068Z,85.15
2019-05-10T00:30:50.003Z,85.05
2019-05-10T00:31:20.059Z,84.97
2019-05-10T00:31:50.012Z,84.86
2019-05-10T00:32:20.065Z,84.73
2019-05-10T00:32:50.012Z,84.81
2019-05-10T00:33:20.072Z,84.90
2019-05-10T00:33:50.008Z,84.87
2019-05-10T00:34:21.255Z,84.89
2019-05-10T00:34:50.015Z,84.89
2019-05-10T00:35:23.120Z,84.67
2019-05-10T00:35:50.007Z,84.32
2019-05-10T00:36:20.064Z,84.18
2019-05-10T00:36:50.003Z,84.29
2019-05-10T00:37:20.069Z,84.33
2019-05-10T00:37:50.013Z,84.20
2019-05-10T00:38:20.071Z,84.04
2019-05-10T00:38:50.019Z,84.01
2019-05-10T00:39:23.126Z,84.02
2019-05-10T00:39:50.026Z,84.05
2019-05-10T00:40:20.066Z,84.09
2019-05-10T00:40:50.056Z,84.07
2019-05-10T00:41:20.067Z,84.04
2019-05-10T00:41:50.029Z,83.98
2019-05-10T00:42:20.066Z,84.14
2019-05-10T00:42:50.005Z,84.28
2019-05-10T00:43:20.071Z,84.36
2019-05-10T00:43:50.007Z,84.17
2019-05-10T00:44:20.064Z,84.05
2019-05-10T00:44:51.166Z,83.99
2019-05-10T00:45:20.068Z,84.02
2019-05-10T00:45:50.057Z,84.20
2019-05-10T00:46:20.063Z,84.27
2019-05-10T00:46:50.008Z,84.30
2019-05-10T00:47:20.064Z,84.47
2019-05-10T00:47:50.014Z,84.49
2019-05-10T00:48:20.069Z,84.21
2019-05-10T00:48:50.019Z,83.84
2019-05-10T00:49:20.069Z,83.88
2019-05-10T00:49:53.227Z,83.99
2019-05-10T00:50:20.075Z,83.86
2019-05-10T00:50:50.009Z,83.47
2019-05-10T00:51:20.064Z,83.53
2019-05-10T00:51:50.008Z,83.48
2019-05-10T00:52:20.071Z,83.58
2019-05-10T00:52:50.023Z,83.62
2019-05-10T00:53:20.072Z,83.72
2019-05-10T00:53:50.009Z,83.84
2019-05-10T00:54:20.069Z,83.79
2019-05-10T00:54:50.006Z,83.77
2019-05-10T00:55:21.185Z,83.59
2019-05-10T00:55:50.023Z,83.63
2019-05-10T00:56:23.103Z,83.62
2019-05-10T00:56:50.014Z,83.58
2019-05-10T00:57:20.068Z,83.56
2019-05-10T00:57:50.012Z,83.38
2019-05-10T00:58:20.078Z,83.34
2019-05-10T00:58:50.009Z,83.38
2019-05-10T00:59:20.068Z,83.53
2019-05-10T00:59:50.011Z,83.41
2019-05-10T01:00:23.341Z,83.31
2019-05-10T01:00:50.008Z,83.34
2019-05-10T01:01:20.072Z,83.25
2019-05-10T01:01:50.011Z,83.35
2019-05-10T01:02:20.139Z,83.42
2019-05-10T01:02:50.006Z,83.56
2019-05-10T01:03:20.070Z,83.44
2019-05-10T01:03:50.026Z,83.41
2019-05-10T01:04:20.073Z,83.38
2019-05-10T01:04:50.014Z,83.41
2019-05-10T01:05:20.069Z,83.35
2019-05-10T01:05:51.115Z,83.42
2019-05-10T01:06:20.074Z,83.34
2019-05-10T01:06:50.018Z,83.36
2019-05-10T01:07:20.070Z,83.42
2019-05-10T01:07:50.017Z,83.45
2019-05-10T01:08:20.071Z,83.52
2019-05-10T01:08:50.018Z,83.62
2019-05-10T01:09:20.073Z,83.40
2019-05-10T01:09:50.014Z,83.23
2019-05-10T01:10:20.078Z,83.06
2019-05-10T01:10:53.173Z,83.00
2019-05-10T01:11:20.074Z,83.01
2019-05-10T01:11:50.010Z,83.03
2019-05-10T01:12:20.067Z,83.06
2019-05-10T01:12:50.029Z,83.01
2019-05-10T01:13:20.074Z,83.10
2019-05-10T01:13:50.010Z,83.01
2019-05-10T01:14:20.082Z,82.97
2019-05-10T01:14:50.012Z,82.91
2019-05-10T01:15:20.071Z,82.87
2019-05-10T01:15:50.011Z,82.97
2019-05-10T01:16:21.127Z,83.09
2019-05-10T01:16:50.013Z,83.18
2019-05-10T01:17:23.102Z,82.94
2019-05-10T01:17:50.019Z,82.84
2019-05-10T01:18:20.082Z,83.09
2019-05-10T01:18:50.030Z,82.94
2019-05-10T01:19:20.079Z,82.91
2019-05-10T01:19:50.019Z,83.00
2019-05-10T01:20:20.081Z,83.13
2019-05-10T01:20:50.016Z,83.07
2019-05-10T01:21:23.175Z,83.09
2019-05-10T01:21:50.021Z,83.05
2019-05-10T01:22:20.082Z,82.99
2019-05-10T01:22:50.021Z,83.07
2019-05-10T01:23:20.076Z,83.18
2019-05-10T01:23:50.017Z,83.13
2019-05-10T01:24:20.081Z,82.86
2019-05-10T01:24:50.021Z,82.85
2019-05-10T01:25:34.336Z,82.93
2019-05-10T01:25:50.015Z,83.06
2019-05-10T01:26:20.078Z,83.25
2019-05-10T01:26:51.235Z,83.43
2019-05-10T01:27:20.074Z,83.58
2019-05-10T01:27:50.013Z,83.74
2019-05-10T01:28:20.075Z,83.61
2019-05-10T01:28:50.016Z,83.53
2019-05-10T01:29:20.083Z,83.69
2019-05-10T01:29:50.017Z,83.92
2019-05-10T01:30:20.073Z,83.99
2019-05-10T01:30:50.057Z,83.52
2019-05-10T01:31:20.083Z,82.88
2019-05-10T01:31:53.259Z,82.97
2019-05-10T01:32:20.073Z,83.39
2019-05-10T01:32:50.020Z,83.56
2019-05-10T01:33:20.411Z,83.46
2019-05-10T01:33:50.017Z,83.05
2019-05-10T01:34:20.083Z,83.04
2019-05-10T01:34:50.015Z,83.39
2019-05-10T01:35:20.135Z,83.61
2019-05-10T01:35:50.025Z,83.39
2019-05-10T01:36:20.084Z,82.94
2019-05-10T01:36:50.016Z,82.85
2019-05-10T01:37:21.155Z,82.99
2019-05-10T01:37:50.030Z,83.08
2019-05-10T01:38:23.107Z,83.02
2019-05-10T01:38:50.014Z,83.21
2019-05-10T01:39:20.154Z,83.34
2019-05-10T01:39:50.023Z,82.77
2019-05-10T01:40:20.079Z,82.76
2019-05-10T01:40:50.023Z,83.10
2019-05-10T01:41:20.087Z,83.36
2019-05-10T01:41:50.017Z,83.37
2019-05-10T01:42:23.208Z,83.23
2019-05-10T01:42:50.025Z,82.94
2019-05-10T01:43:20.077Z,83.05
2019-05-10T01:43:50.016Z,83.20
2019-05-10T01:44:20.078Z,83.24
2019-05-10T01:44:50.013Z,83.31
2019-05-10T01:45:20.081Z,83.25
2019-05-10T01:45:50.023Z,83.09
2019-05-10T01:46:20.083Z,83.07
2019-05-10T01:46:50.028Z,83.11
2019-05-10T01:47:20.088Z,83.18
2019-05-10T01:47:51.301Z,83.23
2019-05-10T01:48:20.083Z,83.05
2019-05-10T01:48:50.025Z,82.96
2019-05-10T01:49:20.081Z,83.00
2019-05-10T01:49:50.026Z,82.39
2019-05-10T01:50:20.094Z,82.14
2019-05-10T01:50:50.037Z,82.17
2019-05-10T01:51:20.084Z,82.34
2019-05-10T01:51:50.035Z,82.42
2019-05-10T01:52:20.082Z,82.36
2019-05-10T01:52:53.156Z,82.22
2019-05-10T01:53:20.085Z,82.37
2019-05-10T01:53:50.098Z,82.51
2019-05-10T01:54:20.159Z,82.30
2019-05-10T01:54:50.054Z,82.22
2019-05-10T01:55:20.088Z,82.42
2019-05-10T01:55:53.008Z,82.54
2019-05-10T01:56:20.083Z,82.59
2019-05-10T01:56:50.033Z,82.58
2019-05-10T01:57:20.084Z,82.69
2019-05-10T01:57:50.023Z,82.81
2019-05-10T01:58:21.217Z,82.67
2019-05-10T01:58:50.028Z,82.78
2019-05-10T01:59:23.113Z,82.82
2019-05-10T01:59:50.023Z,82.79
2019-05-10T02:00:20.079Z,82.93
2019-05-10T02:00:50.027Z,82.99
2019-05-10T02:01:20.084Z,82.86
2019-05-10T02:01:50.023Z,82.85
2019-05-10T02:02:20.220Z,82.75
2019-05-10T02:02:50.022Z,82.78
2019-05-10T02:03:23.214Z,83.04
2019-05-10T02:03:50.031Z,82.61
2019-05-10T02:04:20.083Z,82.57
2019-05-10T02:04:50.028Z,82.60
2019-05-10T02:05:20.088Z,82.79
2019-05-10T02:05:50.036Z,82.80
2019-05-10T02:06:20.091Z,82.76
2019-05-10T02:06:50.043Z,82.86
2019-05-10T02:07:20.094Z,82.91
2019-05-10T02:07:50.041Z,82.92
2019-05-10T02:08:20.095Z,82.63
2019-05-10T02:08:51.719Z,82.57
2019-05-10T02:09:20.085Z,82.45
2019-05-10T02:10:20.144Z,82.40
2019-05-10T02:10:50.026Z,82.65
2019-05-10T02:11:20.090Z,82.84
2019-05-10T02:11:50.024Z,83.01
2019-05-10T02:12:20.090Z,82.95
2019-05-10T02:12:50.026Z,82.80
2019-05-10T02:13:20.081Z,82.87
2019-05-10T02:13:53.177Z,83.00
2019-05-10T02:14:20.087Z,83.17
2019-05-10T02:14:50.024Z,82.83
2019-05-10T02:15:20.090Z,82.51
2019-05-10T02:15:50.022Z,82.38
2019-05-10T02:16:20.088Z,82.51
2019-05-10T02:16:50.026Z,82.47
2019-05-10T02:17:20.089Z,82.45
2019-05-10T02:17:50.030Z,82.32
2019-05-10T02:18:20.090Z,82.34
2019-05-10T02:18:50.031Z,82.56
2019-05-10T02:19:21.159Z,82.26
2019-05-10T02:19:50.026Z,82.37
2019-05-10T02:20:23.085Z,82.55
2019-05-10T02:20:50.030Z,82.54
2019-05-10T02:21:20.098Z,82.74
2019-05-10T02:21:50.041Z,82.97
2019-05-10T02:22:20.089Z,82.96
2019-05-10T02:22:50.047Z,82.92
2019-05-10T02:23:20.091Z,83.22
2019-05-10T02:23:50.031Z,83.03
2019-05-10T02:24:23.134Z,83.30
2019-05-10T02:24:50.039Z,83.61
2019-05-10T02:25:20.092Z,83.72
2019-05-10T02:25:50.025Z,83.74
2019-05-10T02:26:20.101Z,83.60
2019-05-10T02:26:50.027Z,83.69
2019-05-10T02:27:20.098Z,83.87
2019-05-10T02:27:50.037Z,83.89
2019-05-10T02:28:20.105Z,83.99
2019-05-10T02:28:50.030Z,84.07
2019-05-10T02:29:20.090Z,84.25
2019-05-10T02:29:51.208Z,84.29
2019-05-10T02:30:20.102Z,84.32
2019-05-10T02:31:22.208Z,84.44
2019-05-10T02:31:50.028Z,84.48
2019-05-10T02:32:20.090Z,84.24
2019-05-10T02:32:50.037Z,84.29
2019-05-10T02:33:20.093Z,84.58
2019-05-10T02:33:50.033Z,84.75
2019-05-10T02:34:20.098Z,84.66
2019-05-10T02:34:53.145Z,84.63
2019-05-10T02:35:20.094Z,84.59
2019-05-10T02:35:50.034Z,84.81
2019-05-10T02:36:20.105Z,84.95
2019-05-10T02:36:50.036Z,84.93
2019-05-10T02:37:20.098Z,84.95
2019-05-10T02:37:50.035Z,85.09
2019-05-10T02:38:20.098Z,85.07
2019-05-10T02:38:50.044Z,84.96
2019-05-10T02:39:20.106Z,85.02
2019-05-10T02:39:50.040Z,85.17
2019-05-10T02:40:21.110Z,85.18
2019-05-10T02:40:50.032Z,85.25
2019-05-10T02:41:23.103Z,85.28
2019-05-10T02:41:50.039Z,85.44
2019-05-10T02:42:20.095Z,85.35
2019-05-10T02:42:50.043Z,85.27
2019-05-10T02:43:20.102Z,85.42
2019-05-10T02:43:50.040Z,85.51
2019-05-10T02:44:20.099Z,85.63
2019-05-10T02:44:50.032Z,85.67
2019-05-10T02:45:23.189Z,85.78
2019-05-10T02:45:50.033Z,85.37
2019-05-10T02:46:20.097Z,85.32
2019-05-10T02:46:50.032Z,85.50
2019-05-10T02:47:20.095Z,85.65
2019-05-10T02:47:50.038Z,85.65
2019-05-10T02:48:20.095Z,85.67
2019-05-10T02:48:50.040Z,85.77
2019-05-10T02:49:20.107Z,85.78
2019-05-10T02:49:50.034Z,85.94
2019-05-10T02:50:20.111Z,86.08
2019-05-10T02:50:51.245Z,86.21
2019-05-10T02:51:20.107Z,86.20
2019-05-10T02:52:20.096Z,86.30
2019-05-10T02:52:50.048Z,86.09
2019-05-10T02:53:20.097Z,86.11
2019-05-10T02:53:51.551Z,86.31
2019-05-10T02:54:20.108Z,86.44
2019-05-10T02:54:50.040Z,86.67
2019-05-10T02:55:20.178Z,86.75
2019-05-10T02:55:53.221Z,86.85
2019-05-10T02:56:30.165Z,86.91
2019-05-10T02:56:50.033Z,86.94
2019-05-10T02:57:20.095Z,86.98
2019-05-10T02:57:50.041Z,87.10
2019-05-10T02:58:20.105Z,87.20
2019-05-10T02:58:50.042Z,87.29
2019-05-10T02:59:20.098Z,87.24
2019-05-10T02:59:50.035Z,87.21
2019-05-10T03:00:20.107Z,87.19
2019-05-10T03:00:50.031Z,87.31
2019-05-10T03:01:21.239Z,87.43
2019-05-10T03:01:50.043Z,87.48
2019-05-10T03:02:23.138Z,87.49
2019-05-10T03:02:50.036Z,87.50
2019-05-10T03:03:20.098Z,87.43
2019-05-10T03:03:50.038Z,87.61
2019-05-10T03:04:20.099Z,87.71
2019-05-10T03:04:50.047Z,87.76
2019-05-10T03:05:20.102Z,87.76
2019-05-10T03:05:50.043Z,87.85
2019-05-10T03:06:23.218Z,87.90
2019-05-10T03:06:50.043Z,87.90
2019-05-10T03:07:20.107Z,87.85
2019-05-10T03:07:50.047Z,87.82
2019-05-10T03:08:20.103Z,87.94
2019-05-10T03:08:50.059Z,87.99
2019-05-10T03:09:20.101Z,87.73
2019-05-10T03:09:50.068Z,87.74
2019-05-10T03:10:20.100Z,87.59
2019-05-10T03:10:50.040Z,87.60
2019-05-10T03:11:20.105Z,87.58
2019-05-10T03:11:51.148Z,87.53
2019-05-10T03:12:21.135Z,87.66
2019-05-10T03:13:20.100Z,87.60
2019-05-10T03:13:50.042Z,87.50
2019-05-10T03:14:20.110Z,87.41
2019-05-10T03:14:50.040Z,87.52
2019-05-10T03:15:20.111Z,87.62
2019-05-10T03:15:50.042Z,87.76
2019-05-10T03:16:20.099Z,87.87
2019-05-10T03:16:53.164Z,87.76
2019-05-10T03:17:20.099Z,87.64
2019-05-10T03:17:50.045Z,87.67
2019-05-10T03:18:20.101Z,87.77
2019-05-10T03:18:50.052Z,87.82
2019-05-10T03:19:20.111Z,87.84
2019-05-10T03:19:50.046Z,87.97
2019-05-10T03:20:20.099Z,88.04
2019-05-10T03:20:50.055Z,88.07
2019-05-10T03:21:20.099Z,88.18
2019-05-10T03:21:50.050Z,88.07
2019-05-10T03:22:21.177Z,88.05
2019-05-10T03:22:50.049Z,87.99
2019-05-10T03:23:23.131Z,87.76
2019-05-10T03:23:50.052Z,87.85
2019-05-10T03:24:20.114Z,87.95
2019-05-10T03:24:50.042Z,87.70
2019-05-10T03:25:20.104Z,87.26
2019-05-10T03:25:50.060Z,87.30
2019-05-10T03:26:20.104Z,87.45
2019-05-10T03:26:52.055Z,87.59
2019-05-10T03:27:23.268Z,87.69
2019-05-10T03:27:50.061Z,87.83
2019-05-10T03:28:20.110Z,87.87
2019-05-10T03:28:50.045Z,87.82
2019-05-10T03:29:20.107Z,87.80
2019-05-10T03:29:50.051Z,87.83
2019-05-10T03:30:20.106Z,87.79
2019-05-10T03:30:50.054Z,87.79
2019-05-10T03:31:20.106Z,87.66
2019-05-10T03:31:50.044Z,87.66
2019-05-10T03:32:20.101Z,87.65
2019-05-10T03:32:51.204Z,87.57
2019-05-10T03:33:20.115Z,87.39
2019-05-10T03:33:57.485Z,87.43
2019-05-10T03:34:20.113Z,87.48
2019-05-10T03:34:50.044Z,87.56
2019-05-10T03:35:20.113Z,87.64
2019-05-10T03:35:50.050Z,87.64
2019-05-10T03:36:20.113Z,87.62
2019-05-10T03:36:50.043Z,87.65
2019-05-10T03:37:20.109Z,87.73
2019-05-10T03:37:53.200Z,87.66
2019-05-10T03:38:20.110Z,87.59
2019-05-10T03:38:50.058Z,87.57
2019-05-10T03:39:20.121Z,87.30
2019-05-10T03:39:50.048Z,87.31
2019-05-10T03:40:20.106Z,87.35
2019-05-10T03:40:50.054Z,87.42
2019-05-10T03:41:20.109Z,87.33
2019-05-10T03:41:50.043Z,87.30
2019-05-10T03:42:20.107Z,87.29
2019-05-10T03:42:50.064Z,87.36
2019-05-10T03:43:21.254Z,87.44
2019-05-10T03:43:50.050Z,87.51
2019-05-10T03:44:23.142Z,87.54
2019-05-10T03:44:50.047Z,87.52
2019-05-10T03:45:20.116Z,87.59
2019-05-10T03:45:50.053Z,87.71
2019-05-10T03:46:20.116Z,87.79
2019-05-10T03:46:50.047Z,87.89
2019-05-10T03:47:20.106Z,87.76
2019-05-10T03:47:50.049Z,87.66
2019-05-10T03:48:23.265Z,87.59
2019-05-10T03:48:50.043Z,87.59
2019-05-10T03:49:20.114Z,87.62
2019-05-10T03:49:50.048Z,87.61
2019-05-10T03:50:20.147Z,87.76
2019-05-10T03:50:50.058Z,87.86
2019-05-10T03:51:20.130Z,87.72
2019-05-10T03:51:50.055Z,87.69
2019-05-10T03:52:20.114Z,87.68
2019-05-10T03:52:52.747Z,87.74
2019-05-10T03:53:20.116Z,87.81
2019-05-10T03:53:51.322Z,87.78
2019-05-10T03:54:20.117Z,87.75
2019-05-10T03:54:53.070Z,87.81
2019-05-10T03:55:20.118Z,87.77
2019-05-10T03:55:50.050Z,87.78
2019-05-10T03:56:20.111Z,87.79
2019-05-10T03:57:10.655Z,87.81
2019-05-10T03:57:20.114Z,87.86
2019-05-10T03:57:50.064Z,87.85
2019-05-10T03:58:20.118Z,87.86
2019-05-10T03:58:53.195Z,87.77
2019-05-10T03:59:20.117Z,87.69
2019-05-10T03:59:50.045Z,87.73
2019-05-10T04:00:20.115Z,87.76
2019-05-10T04:00:50.051Z,87.70
2019-05-10T04:01:20.109Z,87.42
2019-05-10T04:01:50.052Z,87.50
2019-05-10T04:02:20.116Z,87.68
2019-05-10T04:02:50.056Z,87.58
2019-05-10T04:03:20.109Z,87.51
2019-05-10T04:03:50.054Z,87.37
2019-05-10T04:04:21.156Z,87.39
2019-05-10T04:04:50.106Z,87.45
2019-05-10T04:05:23.178Z,87.52
2019-05-10T04:05:50.052Z,87.59
2019-05-10T04:06:20.116Z,87.63
2019-05-10T04:06:50.063Z,87.69
2019-05-10T04:07:22.347Z,87.85
2019-05-10T04:07:50.053Z,87.89
2019-05-10T04:08:20.115Z,87.86
2019-05-10T04:08:50.064Z,87.89
2019-05-10T04:09:23.161Z,87.82
2019-05-10T04:09:50.056Z,87.80
2019-05-10T04:10:25.078Z,87.86
2019-05-10T04:10:50.067Z,87.83
2019-05-10T04:11:20.121Z,87.87
2019-05-10T04:11:50.055Z,87.88
2019-05-10T04:12:20.117Z,87.80
2019-05-10T04:12:50.059Z,87.82
2019-05-10T04:13:20.122Z,87.93
2019-05-10T04:13:50.063Z,88.02
2019-05-10T04:14:20.119Z,88.03
2019-05-10T04:14:51.210Z,88.04
2019-05-10T04:15:20.131Z,88.07
2019-05-10T04:15:53.066Z,88.10
2019-05-10T04:16:20.119Z,88.03
2019-05-10T04:16:50.054Z,88.00
2019-05-10T04:17:20.125Z,87.94
2019-05-10T04:17:51.060Z,88.00
2019-05-10T04:18:20.119Z,88.07
2019-05-10T04:18:50.064Z,88.12
2019-05-10T04:19:20.125Z,88.03
2019-05-10T04:19:53.277Z,87.99
2019-05-10T04:20:20.120Z,87.97
2019-05-10T04:20:50.055Z,87.93
2019-05-10T04:21:20.119Z,87.98
2019-05-10T04:21:50.059Z,87.96
2019-05-10T04:22:20.136Z,87.79
2019-05-10T04:22:50.064Z,87.83
2019-05-10T04:23:20.118Z,87.82
2019-05-10T04:23:50.060Z,87.73
2019-05-10T04:24:20.117Z,87.75
2019-05-10T04:24:50.066Z,87.79
2019-05-10T04:25:21.152Z,87.75
2019-05-10T04:25:50.075Z,87.67
2019-05-10T04:26:23.114Z,87.68
2019-05-10T04:26:50.061Z,87.69
2019-05-10T04:27:31.917Z,87.73
2019-05-10T04:27:50.167Z,87.74
2019-05-10T04:28:20.116Z,87.63
2019-05-10T04:28:50.058Z,87.45
2019-05-10T04:29:20.125Z,87.44
2019-05-10T04:29:50.061Z,87.42
2019-05-10T04:30:23.193Z,87.44
2019-05-10T04:30:50.061Z,87.44
2019-05-10T04:31:20.129Z,87.47
2019-05-10T04:31:50.059Z,87.51
2019-05-10T04:32:20.120Z,87.35
2019-05-10T04:32:50.061Z,87.38
2019-05-10T04:33:20.122Z,87.38
2019-05-10T04:33:50.067Z,87.22
2019-05-10T04:34:20.133Z,87.32
2019-05-10T04:34:50.067Z,87.36
2019-05-10T04:35:20.118Z,87.37
2019-05-10T04:35:51.272Z,87.34
2019-05-10T04:36:20.133Z,87.41
2019-05-10T04:36:53.080Z,87.34
2019-05-10T04:37:20.124Z,87.37
2019-05-10T04:37:50.059Z,87.46
2019-05-10T04:38:20.259Z,87.38
2019-05-10T04:38:50.067Z,87.32
2019-05-10T04:39:20.117Z,87.38
2019-05-10T04:39:50.068Z,87.38
2019-05-10T04:40:20.195Z,87.31
2019-05-10T04:40:53.359Z,87.38
2019-05-10T04:41:20.122Z,87.18
2019-05-10T04:41:50.068Z,87.06
2019-05-10T04:42:20.131Z,87.06
2019-05-10T04:42:50.062Z,87.15
2019-05-10T04:43:20.122Z,86.93
2019-05-10T04:43:50.071Z,86.86
2019-05-10T04:44:20.132Z,86.76
2019-05-10T04:44:53.276Z,86.76
2019-05-10T04:45:20.131Z,86.74
2019-05-10T04:45:50.072Z,86.88
2019-05-10T04:46:21.295Z,87.01
2019-05-10T04:46:50.060Z,87.10
2019-05-10T04:47:23.151Z,87.02
2019-05-10T04:47:50.069Z,86.91
2019-05-10T04:48:20.133Z,86.92
2019-05-10T04:48:50.066Z,86.81
2019-05-10T04:49:20.125Z,86.70
2019-05-10T04:49:50.062Z,86.64
2019-05-10T04:50:20.125Z,86.70
2019-05-10T04:50:50.060Z,86.67
2019-05-10T04:51:23.212Z,86.30
2019-05-10T04:51:50.067Z,86.23
2019-05-10T04:52:20.138Z,86.21
2019-05-10T04:52:50.195Z,86.11
2019-05-10T04:53:20.130Z,86.13
2019-05-10T04:53:50.063Z,86.09
2019-05-10T04:54:20.154Z,86.10
2019-05-10T04:54:50.155Z,86.16
2019-05-10T04:55:20.131Z,86.28
2019-05-10T04:55:50.066Z,86.27
2019-05-10T04:56:20.130Z,86.26
2019-05-10T04:56:51.335Z,86.25
2019-05-10T04:57:20.126Z,85.85
2019-05-10T04:57:55.085Z,85.96
2019-05-10T04:58:20.170Z,86.13
2019-05-10T04:58:50.094Z,86.16
2019-05-10T04:59:20.129Z,85.87
2019-05-10T04:59:50.152Z,85.71
2019-05-10T05:00:20.133Z,85.81
2019-05-10T05:00:50.066Z,85.64
2019-05-10T05:01:20.220Z,85.51
2019-05-10T05:01:53.216Z,85.41
2019-05-10T05:02:22.601Z,85.40
2019-05-10T05:02:50.065Z,85.52
2019-05-10T05:03:20.140Z,85.62
2019-05-10T05:03:50.082Z,85.75
2019-05-10T05:04:20.125Z,85.91
2019-05-10T05:04:50.061Z,85.82
2019-05-10T05:05:20.124Z,85.72
2019-05-10T05:05:50.078Z,85.70
2019-05-10T05:06:20.130Z,85.79
2019-05-10T05:06:50.072Z,85.90
2019-05-10T05:07:21.172Z,86.00
2019-05-10T05:07:50.066Z,85.77
2019-05-10T05:08:23.114Z,85.68
2019-05-10T05:08:50.073Z,85.56
2019-05-10T05:09:20.127Z,85.64
2019-05-10T05:09:50.064Z,85.59
2019-05-10T05:10:20.129Z,85.43
2019-05-10T05:10:50.074Z,85.51
2019-05-10T05:11:20.140Z,85.60
2019-05-10T05:11:50.078Z,85.67
2019-05-10T05:12:23.135Z,85.20
2019-05-10T05:12:50.078Z,84.93
2019-05-10T05:13:20.140Z,85.01
2019-05-10T05:13:50.081Z,85.10
2019-05-10T05:14:20.134Z,85.09
2019-05-10T05:14:50.074Z,85.24
2019-05-10T05:15:20.133Z,85.40
2019-05-10T05:15:50.066Z,85.38
2019-05-10T05:16:20.135Z,85.49
2019-05-10T05:16:50.072Z,85.62
2019-05-10T05:17:20.145Z,85.75
2019-05-10T05:17:51.279Z,85.72
2019-05-10T05:18:20.143Z,85.76
2019-05-10T05:18:53.072Z,85.75
2019-05-10T05:19:20.130Z,85.55
2019-05-10T05:19:50.192Z,85.84
2019-05-10T05:20:20.131Z,85.78
2019-05-10T05:20:50.066Z,85.80
2019-05-10T05:21:20.136Z,85.69
2019-05-10T05:21:50.138Z,85.83
2019-05-10T05:22:20.163Z,85.47
2019-05-10T05:22:53.133Z,85.27
2019-05-10T05:23:20.153Z,85.00
2019-05-10T05:23:50.073Z,84.93
2019-05-10T05:24:22.801Z,85.05
2019-05-10T05:24:50.080Z,85.08
2019-05-10T05:25:22.270Z,85.39
2019-05-10T05:25:50.070Z,85.46
2019-05-10T05:26:20.138Z,85.52
2019-05-10T05:26:50.078Z,85.02
2019-05-10T05:27:20.144Z,84.83
2019-05-10T05:28:06.392Z,84.84
2019-05-10T05:28:24.692Z,84.92
2019-05-10T05:28:50.076Z,84.92
2019-05-10T05:29:23.190Z,84.80
2019-05-10T05:29:50.082Z,84.86
2019-05-10T05:30:20.158Z,84.59
2019-05-10T05:30:50.085Z,84.64
2019-05-10T05:31:20.134Z,84.98
2019-05-10T05:31:53.773Z,84.94
2019-05-10T05:32:20.144Z,84.75
2019-05-10T05:32:50.090Z,84.49
2019-05-10T05:33:23.257Z,84.71
2019-05-10T05:33:50.074Z,84.98
2019-05-10T05:34:20.149Z,84.91
2019-05-10T05:34:50.077Z,84.66
2019-05-10T05:35:20.134Z,84.91
2019-05-10T05:35:50.138Z,84.86
2019-05-10T05:36:20.132Z,85.09
2019-05-10T05:36:50.076Z,85.14
2019-05-10T05:37:20.133Z,84.98
2019-05-10T05:37:50.071Z,85.11
2019-05-10T05:38:20.151Z,85.50
2019-05-10T05:38:51.329Z,85.36
2019-05-10T05:39:20.142Z,84.97
2019-05-10T05:39:53.067Z,84.66
2019-05-10T05:40:20.130Z,84.79
2019-05-10T05:40:50.091Z,84.67
2019-05-10T05:41:20.137Z,84.25
2019-05-10T05:41:56.008Z,84.41
2019-05-10T05:42:27.330Z,84.72
2019-05-10T05:42:50.273Z,84.93
2019-05-10T05:43:20.138Z,85.11
2019-05-10T05:43:53.152Z,85.16
2019-05-10T05:44:25.975Z,85.22
2019-05-10T05:44:50.079Z,85.37
2019-05-10T05:45:20.137Z,85.55
2019-05-10T05:45:50.092Z,85.47
2019-05-10T05:46:20.136Z,85.45
2019-05-10T05:46:50.079Z,85.44
2019-05-10T05:47:20.145Z,85.47
2019-05-10T05:47:50.080Z,85.57
2019-05-10T05:48:23.055Z,85.46
2019-05-10T05:48:52.088Z,85.25
2019-05-10T05:49:21.208Z,85.26
2019-05-10T05:49:50.078Z,85.16
2019-05-10T05:50:23.185Z,84.96
2019-05-10T05:50:50.079Z,84.79
2019-05-10T05:51:20.135Z,84.57
2019-05-10T05:51:50.076Z,84.66
2019-05-10T05:52:20.136Z,84.73
2019-05-10T05:52:50.073Z,84.85
2019-05-10T05:53:22.636Z,84.98
2019-05-10T05:53:50.199Z,85.30
2019-05-10T05:54:23.320Z,85.48
2019-05-10T05:54:52.805Z,85.66
2019-05-10T05:55:30.440Z,85.65
2019-05-10T05:55:50.081Z,85.61
2019-05-10T05:56:20.162Z,85.58
2019-05-10T05:56:53.017Z,85.67
2019-05-10T05:57:27.444Z,85.67
2019-05-10T05:57:50.078Z,85.47
2019-05-10T05:58:26.387Z,85.01
2019-05-10T05:58:50.081Z,84.77
2019-05-10T05:59:24.132Z,84.89
2019-05-10T05:59:51.090Z,84.44
2019-05-10T06:00:20.139Z,84.14
2019-05-10T06:00:53.263Z,84.14
2019-05-10T06:01:25.988Z,84.06
2019-05-10T06:01:50.080Z,84.27
2019-05-10T06:02:20.140Z,84.53
2019-05-10T06:02:50.075Z,84.66
2019-05-10T06:03:27.434Z,84.12
2019-05-10T06:03:50.087Z,83.65
2019-05-10T06:04:20.149Z,83.78
2019-05-10T06:04:53.299Z,84.23
2019-05-10T06:05:33.761Z,84.37
2019-05-10T06:05:50.073Z,84.23
2019-05-10T06:06:23.553Z,84.50
2019-05-10T06:06:53.591Z,84.44
2019-05-10T06:07:20.141Z,84.61
2019-05-10T06:07:52.540Z,84.45
2019-05-10T06:08:24.586Z,84.16
2019-05-10T06:08:54.334Z,83.92
2019-05-10T06:09:20.140Z,83.41
2019-05-10T06:09:50.088Z,83.37
2019-05-10T06:10:20.141Z,83.54
2019-05-10T06:10:57.515Z,83.64
2019-05-10T06:11:23.113Z,83.77
2019-05-10T06:11:50.082Z,84.07
2019-05-10T06:12:20.141Z,84.22
2019-05-10T06:12:52.922Z,84.75
2019-05-10T06:13:23.214Z,84.27
2019-05-10T06:13:50.086Z,84.11
2019-05-10T06:14:20.147Z,83.75
2019-05-10T06:14:52.328Z,83.41
2019-05-10T06:15:28.896Z,83.22
2019-05-10T06:15:50.084Z,83.15
2019-05-10T06:16:22.266Z,83.05
2019-05-10T06:16:53.068Z,83.12
2019-05-10T06:17:23.601Z,83.18
2019-05-10T06:17:56.853Z,83.27
2019-05-10T06:18:20.151Z,83.27
2019-05-10T06:18:50.085Z,82.83
2019-05-10T06:19:29.303Z,83.04
2019-05-10T06:19:50.081Z,83.34
2019-05-10T06:20:20.146Z,83.52
2019-05-10T06:20:50.079Z,83.58
2019-05-10T06:21:26.303Z,83.40
2019-05-10T06:21:57.840Z,83.04
2019-05-10T06:22:20.191Z,82.88
2019-05-10T06:23:06.188Z,82.84
2019-05-10T06:23:20.143Z,82.94
2019-05-10T06:23:50.091Z,83.04
2019-05-10T06:24:20.193Z,83.34
2019-05-10T06:24:53.744Z,83.41
2019-05-10T06:25:37.162Z,83.51
2019-05-10T06:25:53.171Z,83.61
2019-05-10T06:26:27.744Z,83.67
2019-05-10T06:26:50.091Z,83.82
2019-05-10T06:27:20.142Z,84.00
2019-05-10T06:27:50.089Z,83.56
2019-05-10T06:28:26.764Z,83.34